sensor_id;sensor_type;location;lat;lon;timestamp;P1;durP1;ratioP1;P2;durP2;ratioP2
23728;SDS011;12045;60.214;24.724;2022-12-07T00:01:41;57.57;;;7.00;;
23728;SDS011;12045;60.214;24.724;2022-12-07T00:04:11;14.47;;;5.97;;
23728;SDS011;12045;60.214;24.724;2022-12-07T00:06:44;21.60;;;6.17;;
23728;SDS011;12045;60.214;24.724;2022-12-07T00:09:14;16.80;;;5.93;;
23728;SDS011;12045;60.214;24.724;2022-12-07T00:11:43;47.40;;;7.27;;
23728;SDS011;12045;60.214;24.724;2022-12-07T00:14:12;16.27;;;5.03;;
23728;SDS011;12045;60.214;24.724;2022-12-07T00:16:41;80.13;;;8.40;;
23728;SDS011;12045;60.214;24.724;2022-12-07T00:19:11;150.03;;;11.60;;
23728;SDS011;12045;60.214;24.724;2022-12-07T00:21:41;121.43;;;10.37;;
23728;SDS011;12045;60.214;24.724;2022-12-07T00:24:09;141.03;;;10.87;;
23728;SDS011;12045;60.214;24.724;2022-12-07T00:26:38;60.57;;;7.30;;
23728;SDS011;12045;60.214;24.724;2022-12-07T00:29:09;173.73;;;11.53;;
23728;SDS011;12045;60.214;24.724;2022-12-07T00:31:41;47.70;;;7.00;;
23728;SDS011;12045;60.214;24.724;2022-12-07T00:34:14;121.03;;;10.83;;
23728;SDS011;12045;60.214;24.724;2022-12-07T00:36:42;53.53;;;7.20;;
23728;SDS011;12045;60.214;24.724;2022-12-07T00:39:10;37.20;;;6.60;;
23728;SDS011;12045;60.214;24.724;2022-12-07T00:41:38;73.47;;;7.93;;
23728;SDS011;12045;60.214;24.724;2022-12-07T00:44:05;31.30;;;6.13;;
23728;SDS011;12045;60.214;24.724;2022-12-07T00:46:33;44.90;;;7.00;;
23728;SDS011;12045;60.214;24.724;2022-12-07T00:49:01;41.10;;;6.63;;
23728;SDS011;12045;60.214;24.724;2022-12-07T00:51:28;112.13;;;9.27;;
23728;SDS011;12045;60.214;24.724;2022-12-07T00:53:55;106.23;;;8.50;;
23728;SDS011;12045;60.214;24.724;2022-12-07T00:56:24;225.33;;;13.27;;
23728;SDS011;12045;60.214;24.724;2022-12-07T00:58:54;41.83;;;6.87;;
23728;SDS011;12045;60.214;24.724;2022-12-07T01:01:27;30.23;;;6.50;;
23728;SDS011;12045;60.214;24.724;2022-12-07T01:03:57;251.83;;;15.97;;
23728;SDS011;12045;60.214;24.724;2022-12-07T01:06:28;29.30;;;6.83;;
23728;SDS011;12045;60.214;24.724;2022-12-07T01:08:56;18.10;;;5.53;;
23728;SDS011;12045;60.214;24.724;2022-12-07T01:11:24;35.83;;;6.67;;
23728;SDS011;12045;60.214;24.724;2022-12-07T01:13:54;22.50;;;6.90;;
23728;SDS011;12045;60.214;24.724;2022-12-07T01:16:24;16.97;;;6.47;;
23728;SDS011;12045;60.214;24.724;2022-12-07T01:18:53;23.30;;;6.50;;
23728;SDS011;12045;60.214;24.724;2022-12-07T01:21:23;21.30;;;6.13;;
23728;SDS011;12045;60.214;24.724;2022-12-07T01:23:53;18.73;;;6.33;;
23728;SDS011;12045;60.214;24.724;2022-12-07T01:26:22;16.77;;;5.73;;
23728;SDS011;12045;60.214;24.724;2022-12-07T01:28:50;18.80;;;6.10;;
23728;SDS011;12045;60.214;24.724;2022-12-07T01:31:19;19.10;;;6.50;;
23728;SDS011;12045;60.214;24.724;2022-12-07T01:33:49;18.40;;;6.43;;
23728;SDS011;12045;60.214;24.724;2022-12-07T01:36:20;19.53;;;6.20;;
23728;SDS011;12045;60.214;24.724;2022-12-07T01:38:50;14.70;;;6.20;;
23728;SDS011;12045;60.214;24.724;2022-12-07T01:41:20;15.67;;;5.20;;
23728;SDS011;12045;60.214;24.724;2022-12-07T01:49:24;15.60;;;5.57;;
23728;SDS011;12045;60.214;24.724;2022-12-07T01:52:17;15.83;;;6.40;;
23728;SDS011;12045;60.214;24.724;2022-12-07T01:54:56;15.77;;;6.00;;
23728;SDS011;12045;60.214;24.724;2022-12-07T01:57:30;13.60;;;6.10;;
23728;SDS011;12045;60.214;24.724;2022-12-07T02:00:01;18.37;;;6.23;;
23728;SDS011;12045;60.214;24.724;2022-12-07T02:02:31;15.50;;;6.67;;
23728;SDS011;12045;60.214;24.724;2022-12-07T02:05:02;13.33;;;5.93;;
23728;SDS011;12045;60.214;24.724;2022-12-07T02:07:32;17.20;;;6.50;;
23728;SDS011;12045;60.214;24.724;2022-12-07T02:10:12;11.37;;;5.03;;
23728;SDS011;12045;60.214;24.724;2022-12-07T02:12:41;12.30;;;5.37;;
23728;SDS011;12045;60.214;24.724;2022-12-07T02:15:15;12.00;;;4.80;;
23728;SDS011;12045;60.214;24.724;2022-12-07T02:18:06;11.70;;;4.97;;
23728;SDS011;12045;60.214;24.724;2022-12-07T02:20:41;9.93;;;4.57;;
23728;SDS011;12045;60.214;24.724;2022-12-07T02:23:40;11.50;;;4.97;;
23728;SDS011;12045;60.214;24.724;2022-12-07T02:29:27;8.63;;;4.23;;
23728;SDS011;12045;60.214;24.724;2022-12-07T02:32:19;9.10;;;4.73;;
23728;SDS011;12045;60.214;24.724;2022-12-07T02:35:09;10.43;;;4.33;;
23728;SDS011;12045;60.214;24.724;2022-12-07T02:40:20;13.87;;;5.63;;
23728;SDS011;12045;60.214;24.724;2022-12-07T02:43:10;18.53;;;7.00;;
23728;SDS011;12045;60.214;24.724;2022-12-07T02:45:42;15.67;;;6.80;;
23728;SDS011;12045;60.214;24.724;2022-12-07T02:48:14;17.70;;;6.83;;
23728;SDS011;12045;60.214;24.724;2022-12-07T02:50:44;17.07;;;6.73;;
23728;SDS011;12045;60.214;24.724;2022-12-07T02:53:36;13.80;;;6.27;;
23728;SDS011;12045;60.214;24.724;2022-12-07T03:15:40;12.20;;;4.93;;
23728;SDS011;12045;60.214;24.724;2022-12-07T03:18:18;10.37;;;5.00;;
23728;SDS011;12045;60.214;24.724;2022-12-07T03:20:49;7.27;;;4.03;;
23728;SDS011;12045;60.214;24.724;2022-12-07T03:23:20;8.93;;;3.10;;
23728;SDS011;12045;60.214;24.724;2022-12-07T03:25:52;7.90;;;3.43;;
23728;SDS011;12045;60.214;24.724;2022-12-07T03:28:27;3.80;;;2.33;;
23728;SDS011;12045;60.214;24.724;2022-12-07T03:31:46;4.67;;;2.93;;
23728;SDS011;12045;60.214;24.724;2022-12-07T03:36:50;7.03;;;3.33;;
23728;SDS011;12045;60.214;24.724;2022-12-07T03:42:08;6.27;;;3.27;;
23728;SDS011;12045;60.214;24.724;2022-12-07T03:44:38;5.13;;;3.00;;
23728;SDS011;12045;60.214;24.724;2022-12-07T03:47:56;5.97;;;2.90;;
23728;SDS011;12045;60.214;24.724;2022-12-07T03:49:59;5.03;;;3.00;;
23728;SDS011;12045;60.214;24.724;2022-12-07T03:52:37;5.33;;;2.80;;
23728;SDS011;12045;60.214;24.724;2022-12-07T03:55:18;5.47;;;3.00;;
23728;SDS011;12045;60.214;24.724;2022-12-07T03:57:54;6.07;;;2.80;;
23728;SDS011;12045;60.214;24.724;2022-12-07T04:00:26;4.90;;;2.63;;
23728;SDS011;12045;60.214;24.724;2022-12-07T04:02:53;6.37;;;2.80;;
23728;SDS011;12045;60.214;24.724;2022-12-07T04:05:22;4.90;;;2.70;;
23728;SDS011;12045;60.214;24.724;2022-12-07T04:07:50;6.73;;;3.33;;
23728;SDS011;12045;60.214;24.724;2022-12-07T04:10:18;6.17;;;3.07;;
23728;SDS011;12045;60.214;24.724;2022-12-07T04:12:46;6.83;;;3.00;;
23728;SDS011;12045;60.214;24.724;2022-12-07T04:15:13;6.93;;;3.43;;
23728;SDS011;12045;60.214;24.724;2022-12-07T04:17:42;6.47;;;3.20;;
23728;SDS011;12045;60.214;24.724;2022-12-07T04:20:09;6.67;;;3.30;;
23728;SDS011;12045;60.214;24.724;2022-12-07T04:22:37;5.33;;;3.17;;
23728;SDS011;12045;60.214;24.724;2022-12-07T04:25:05;5.13;;;2.90;;
23728;SDS011;12045;60.214;24.724;2022-12-07T04:27:33;6.90;;;3.10;;
23728;SDS011;12045;60.214;24.724;2022-12-07T04:30:01;7.33;;;3.77;;
23728;SDS011;12045;60.214;24.724;2022-12-07T04:32:29;10.03;;;4.10;;
23728;SDS011;12045;60.214;24.724;2022-12-07T04:34:56;5.63;;;3.27;;
23728;SDS011;12045;60.214;24.724;2022-12-07T04:37:24;6.33;;;3.20;;
23728;SDS011;12045;60.214;24.724;2022-12-07T04:39:51;5.00;;;2.70;;
23728;SDS011;12045;60.214;24.724;2022-12-07T04:42:19;7.47;;;3.40;;
23728;SDS011;12045;60.214;24.724;2022-12-07T04:44:47;6.43;;;3.13;;
23728;SDS011;12045;60.214;24.724;2022-12-07T04:47:14;4.80;;;3.00;;
23728;SDS011;12045;60.214;24.724;2022-12-07T04:49:42;5.90;;;3.27;;
23728;SDS011;12045;60.214;24.724;2022-12-07T04:52:09;6.30;;;3.30;;
23728;SDS011;12045;60.214;24.724;2022-12-07T04:54:36;6.50;;;3.30;;
23728;SDS011;12045;60.214;24.724;2022-12-07T04:57:04;7.20;;;3.27;;
23728;SDS011;12045;60.214;24.724;2022-12-07T04:59:31;7.93;;;3.47;;
23728;SDS011;12045;60.214;24.724;2022-12-07T05:01:59;7.37;;;3.27;;
23728;SDS011;12045;60.214;24.724;2022-12-07T05:04:26;6.40;;;3.40;;
23728;SDS011;12045;60.214;24.724;2022-12-07T05:06:54;8.33;;;3.70;;
23728;SDS011;12045;60.214;24.724;2022-12-07T05:09:21;6.03;;;3.60;;
23728;SDS011;12045;60.214;24.724;2022-12-07T05:11:48;10.93;;;3.90;;
23728;SDS011;12045;60.214;24.724;2022-12-07T05:14:17;8.40;;;3.83;;
23728;SDS011;12045;60.214;24.724;2022-12-07T05:16:47;7.23;;;4.00;;
23728;SDS011;12045;60.214;24.724;2022-12-07T05:19:17;8.37;;;4.30;;
23728;SDS011;12045;60.214;24.724;2022-12-07T05:21:45;8.07;;;4.20;;
23728;SDS011;12045;60.214;24.724;2022-12-07T05:24:13;6.20;;;3.87;;
23728;SDS011;12045;60.214;24.724;2022-12-07T05:26:42;10.70;;;4.43;;
23728;SDS011;12045;60.214;24.724;2022-12-07T05:29:13;7.27;;;4.07;;
23728;SDS011;12045;60.214;24.724;2022-12-07T05:31:42;9.87;;;4.03;;
23728;SDS011;12045;60.214;24.724;2022-12-07T05:34:10;8.00;;;4.80;;
23728;SDS011;12045;60.214;24.724;2022-12-07T05:36:38;10.40;;;5.20;;
23728;SDS011;12045;60.214;24.724;2022-12-07T05:39:06;9.60;;;4.83;;
23728;SDS011;12045;60.214;24.724;2022-12-07T05:41:34;7.73;;;4.50;;
23728;SDS011;12045;60.214;24.724;2022-12-07T05:44:20;8.50;;;3.83;;
23728;SDS011;12045;60.214;24.724;2022-12-07T05:46:48;8.37;;;4.20;;
23728;SDS011;12045;60.214;24.724;2022-12-07T05:49:15;9.13;;;4.13;;
23728;SDS011;12045;60.214;24.724;2022-12-07T05:51:43;9.17;;;3.80;;
23728;SDS011;12045;60.214;24.724;2022-12-07T05:54:10;8.07;;;3.77;;
23728;SDS011;12045;60.214;24.724;2022-12-07T05:56:38;9.57;;;4.37;;
23728;SDS011;12045;60.214;24.724;2022-12-07T05:59:05;7.50;;;4.33;;
23728;SDS011;12045;60.214;24.724;2022-12-07T06:01:54;10.97;;;4.10;;
23728;SDS011;12045;60.214;24.724;2022-12-07T06:04:30;8.23;;;4.43;;
23728;SDS011;12045;60.214;24.724;2022-12-07T06:06:59;8.63;;;4.70;;
23728;SDS011;12045;60.214;24.724;2022-12-07T06:09:28;10.50;;;5.30;;
23728;SDS011;12045;60.214;24.724;2022-12-07T06:11:56;9.23;;;5.37;;
23728;SDS011;12045;60.214;24.724;2022-12-07T06:14:42;10.80;;;5.57;;
23728;SDS011;12045;60.214;24.724;2022-12-07T06:17:11;8.23;;;4.77;;
23728;SDS011;12045;60.214;24.724;2022-12-07T06:19:42;14.50;;;5.23;;
23728;SDS011;12045;60.214;24.724;2022-12-07T06:22:19;10.77;;;5.97;;
23728;SDS011;12045;60.214;24.724;2022-12-07T06:24:46;10.97;;;5.27;;
23728;SDS011;12045;60.214;24.724;2022-12-07T06:27:14;12.50;;;6.13;;
23728;SDS011;12045;60.214;24.724;2022-12-07T06:29:42;11.97;;;5.87;;
23728;SDS011;12045;60.214;24.724;2022-12-07T06:32:10;13.03;;;6.57;;
23728;SDS011;12045;60.214;24.724;2022-12-07T06:34:38;16.73;;;6.03;;
23728;SDS011;12045;60.214;24.724;2022-12-07T06:37:08;12.57;;;6.47;;
23728;SDS011;12045;60.214;24.724;2022-12-07T06:39:36;14.03;;;6.37;;
23728;SDS011;12045;60.214;24.724;2022-12-07T06:42:03;13.53;;;6.80;;
23728;SDS011;12045;60.214;24.724;2022-12-07T06:44:31;14.87;;;7.13;;
23728;SDS011;12045;60.214;24.724;2022-12-07T06:47:03;18.50;;;7.70;;
23728;SDS011;12045;60.214;24.724;2022-12-07T06:49:51;16.30;;;7.23;;
23728;SDS011;12045;60.214;24.724;2022-12-07T06:52:18;16.90;;;7.33;;
23728;SDS011;12045;60.214;24.724;2022-12-07T06:54:46;17.13;;;7.63;;
23728;SDS011;12045;60.214;24.724;2022-12-07T06:57:14;15.53;;;7.50;;
23728;SDS011;12045;60.214;24.724;2022-12-07T06:59:41;18.67;;;7.57;;
23728;SDS011;12045;60.214;24.724;2022-12-07T07:02:09;17.10;;;8.00;;
23728;SDS011;12045;60.214;24.724;2022-12-07T07:04:44;20.73;;;8.30;;
23728;SDS011;12045;60.214;24.724;2022-12-07T07:07:12;19.63;;;7.40;;
23728;SDS011;12045;60.214;24.724;2022-12-07T07:09:45;12.60;;;6.57;;
23728;SDS011;12045;60.214;24.724;2022-12-07T07:12:13;10.43;;;5.63;;
23728;SDS011;12045;60.214;24.724;2022-12-07T07:14:41;11.20;;;5.90;;
23728;SDS011;12045;60.214;24.724;2022-12-07T07:17:12;12.33;;;6.60;;
23728;SDS011;12045;60.214;24.724;2022-12-07T07:19:40;18.53;;;7.27;;
23728;SDS011;12045;60.214;24.724;2022-12-07T07:22:08;15.23;;;7.53;;
23728;SDS011;12045;60.214;24.724;2022-12-07T07:24:42;21.07;;;7.73;;
23728;SDS011;12045;60.214;24.724;2022-12-07T07:27:10;16.70;;;7.30;;
23728;SDS011;12045;60.214;24.724;2022-12-07T07:29:44;21.33;;;8.40;;
23728;SDS011;12045;60.214;24.724;2022-12-07T07:32:11;21.50;;;8.43;;
23728;SDS011;12045;60.214;24.724;2022-12-07T07:34:39;21.17;;;8.57;;
23728;SDS011;12045;60.214;24.724;2022-12-07T07:37:07;21.43;;;7.97;;
23728;SDS011;12045;60.214;24.724;2022-12-07T07:39:34;20.17;;;8.97;;
23728;SDS011;12045;60.214;24.724;2022-12-07T07:42:02;19.97;;;8.97;;
23728;SDS011;12045;60.214;24.724;2022-12-07T07:44:30;15.87;;;7.80;;
23728;SDS011;12045;60.214;24.724;2022-12-07T07:47:01;16.33;;;7.63;;
23728;SDS011;12045;60.214;24.724;2022-12-07T07:49:30;15.37;;;7.93;;
23728;SDS011;12045;60.214;24.724;2022-12-07T07:51:58;15.90;;;7.80;;
23728;SDS011;12045;60.214;24.724;2022-12-07T07:54:26;21.07;;;7.73;;
23728;SDS011;12045;60.214;24.724;2022-12-07T07:56:54;21.13;;;8.20;;
23728;SDS011;12045;60.214;24.724;2022-12-07T07:59:25;17.30;;;7.83;;
23728;SDS011;12045;60.214;24.724;2022-12-07T08:01:57;16.83;;;8.47;;
23728;SDS011;12045;60.214;24.724;2022-12-07T08:04:29;15.03;;;6.87;;
23728;SDS011;12045;60.214;24.724;2022-12-07T08:06:57;17.17;;;8.43;;
23728;SDS011;12045;60.214;24.724;2022-12-07T08:09:32;22.03;;;8.80;;
23728;SDS011;12045;60.214;24.724;2022-12-07T08:12:00;24.13;;;9.50;;
23728;SDS011;12045;60.214;24.724;2022-12-07T08:14:34;24.07;;;10.07;;
23728;SDS011;12045;60.214;24.724;2022-12-07T08:17:01;27.57;;;9.43;;
23728;SDS011;12045;60.214;24.724;2022-12-07T08:19:29;26.53;;;10.43;;
23728;SDS011;12045;60.214;24.724;2022-12-07T08:21:58;27.43;;;11.00;;
23728;SDS011;12045;60.214;24.724;2022-12-07T08:24:26;24.33;;;10.27;;
23728;SDS011;12045;60.214;24.724;2022-12-07T08:26:55;26.50;;;9.53;;
23728;SDS011;12045;60.214;24.724;2022-12-07T08:29:23;27.03;;;10.93;;
23728;SDS011;12045;60.214;24.724;2022-12-07T08:31:52;28.63;;;10.03;;
23728;SDS011;12045;60.214;24.724;2022-12-07T08:34:19;22.03;;;8.53;;
23728;SDS011;12045;60.214;24.724;2022-12-07T08:36:48;20.57;;;8.30;;
23728;SDS011;12045;60.214;24.724;2022-12-07T08:39:16;19.53;;;7.30;;
23728;SDS011;12045;60.214;24.724;2022-12-07T08:42:01;23.17;;;9.40;;
23728;SDS011;12045;60.214;24.724;2022-12-07T08:44:29;21.93;;;9.00;;
23728;SDS011;12045;60.214;24.724;2022-12-07T08:46:58;23.40;;;8.33;;
23728;SDS011;12045;60.214;24.724;2022-12-07T08:49:41;19.47;;;8.63;;
23728;SDS011;12045;60.214;24.724;2022-12-07T08:52:13;18.90;;;8.53;;
23728;SDS011;12045;60.214;24.724;2022-12-07T08:54:41;25.83;;;9.70;;
23728;SDS011;12045;60.214;24.724;2022-12-07T08:57:10;28.80;;;11.07;;
23728;SDS011;12045;60.214;24.724;2022-12-07T08:59:38;21.47;;;9.67;;
23728;SDS011;12045;60.214;24.724;2022-12-07T09:02:06;20.97;;;9.70;;
23728;SDS011;12045;60.214;24.724;2022-12-07T09:04:34;23.40;;;10.67;;
23728;SDS011;12045;60.214;24.724;2022-12-07T09:07:02;27.80;;;12.27;;
23728;SDS011;12045;60.214;24.724;2022-12-07T09:09:31;21.67;;;10.20;;
23728;SDS011;12045;60.214;24.724;2022-12-07T09:11:58;21.10;;;9.77;;
23728;SDS011;12045;60.214;24.724;2022-12-07T09:14:29;22.57;;;9.73;;
23728;SDS011;12045;60.214;24.724;2022-12-07T09:17:06;21.60;;;9.77;;
23728;SDS011;12045;60.214;24.724;2022-12-07T09:19:38;22.60;;;9.87;;
23728;SDS011;12045;60.214;24.724;2022-12-07T09:22:49;20.47;;;9.53;;
23728;SDS011;12045;60.214;24.724;2022-12-07T09:25:27;19.27;;;9.03;;
23728;SDS011;12045;60.214;24.724;2022-12-07T09:27:56;22.93;;;9.73;;
23728;SDS011;12045;60.214;24.724;2022-12-07T09:30:26;21.00;;;9.63;;
23728;SDS011;12045;60.214;24.724;2022-12-07T09:33:23;19.73;;;8.17;;
23728;SDS011;12045;60.214;24.724;2022-12-07T09:36:08;19.13;;;8.00;;
23728;SDS011;12045;60.214;24.724;2022-12-07T09:38:37;18.13;;;8.03;;
23728;SDS011;12045;60.214;24.724;2022-12-07T09:41:05;23.33;;;8.60;;
23728;SDS011;12045;60.214;24.724;2022-12-07T09:43:35;20.47;;;7.83;;
23728;SDS011;12045;60.214;24.724;2022-12-07T09:46:05;19.50;;;8.40;;
23728;SDS011;12045;60.214;24.724;2022-12-07T09:48:36;19.03;;;8.20;;
23728;SDS011;12045;60.214;24.724;2022-12-07T09:51:22;18.20;;;8.53;;
23728;SDS011;12045;60.214;24.724;2022-12-07T09:53:57;19.97;;;8.70;;
23728;SDS011;12045;60.214;24.724;2022-12-07T09:56:29;18.70;;;7.77;;
23728;SDS011;12045;60.214;24.724;2022-12-07T09:59:01;23.10;;;9.57;;
23728;SDS011;12045;60.214;24.724;2022-12-07T10:01:30;15.17;;;6.93;;
23728;SDS011;12045;60.214;24.724;2022-12-07T10:04:16;17.93;;;6.93;;
23728;SDS011;12045;60.214;24.724;2022-12-07T10:06:54;17.30;;;7.40;;
23728;SDS011;12045;60.214;24.724;2022-12-07T10:09:24;14.90;;;7.03;;
23728;SDS011;12045;60.214;24.724;2022-12-07T10:12:08;19.63;;;7.60;;
23728;SDS011;12045;60.214;24.724;2022-12-07T10:15:00;14.73;;;6.70;;
23728;SDS011;12045;60.214;24.724;2022-12-07T10:17:48;16.73;;;6.80;;
23728;SDS011;12045;60.214;24.724;2022-12-07T10:20:24;15.63;;;7.00;;
23728;SDS011;12045;60.214;24.724;2022-12-07T10:22:58;19.87;;;7.47;;
23728;SDS011;12045;60.214;24.724;2022-12-07T10:25:31;17.67;;;7.73;;
23728;SDS011;12045;60.214;24.724;2022-12-07T10:28:11;18.23;;;7.05;;
23728;SDS011;12045;60.214;24.724;2022-12-07T10:33:35;14.60;;;6.93;;
23728;SDS011;12045;60.214;24.724;2022-12-07T10:39:20;19.20;;;7.03;;
23728;SDS011;12045;60.214;24.724;2022-12-07T10:41:57;16.97;;;7.70;;
23728;SDS011;12045;60.214;24.724;2022-12-07T10:54:44;18.03;;;6.90;;
23728;SDS011;12045;60.214;24.724;2022-12-07T11:01:18;13.80;;;7.07;;
23728;SDS011;12045;60.214;24.724;2022-12-07T11:14:28;17.33;;;7.07;;
23728;SDS011;12045;60.214;24.724;2022-12-07T11:17:26;12.90;;;6.53;;
23728;SDS011;12045;60.214;24.724;2022-12-07T11:24:01;11.87;;;6.63;;
23728;SDS011;12045;60.214;24.724;2022-12-07T11:35:43;10.77;;;6.00;;
23728;SDS011;12045;60.214;24.724;2022-12-07T11:41:34;14.97;;;5.90;;
23728;SDS011;12045;60.214;24.724;2022-12-07T11:48:11;10.50;;;5.40;;
23728;SDS011;12045;60.214;24.724;2022-12-07T11:51:06;11.60;;;5.70;;
23728;SDS011;12045;60.214;24.724;2022-12-07T11:57:30;13.07;;;5.93;;
23728;SDS011;12045;60.214;24.724;2022-12-07T12:06:05;13.97;;;6.13;;
23728;SDS011;12045;60.214;24.724;2022-12-07T12:08:39;11.87;;;5.93;;
23728;SDS011;12045;60.214;24.724;2022-12-07T12:11:56;12.93;;;6.07;;
23728;SDS011;12045;60.214;24.724;2022-12-07T12:23:16;8.73;;;5.50;;
23728;SDS011;12045;60.214;24.724;2022-12-07T12:31:47;10.93;;;4.90;;
23728;SDS011;12045;60.214;24.724;2022-12-07T12:34:39;11.23;;;5.30;;
23728;SDS011;12045;60.214;24.724;2022-12-07T12:42:50;9.10;;;5.13;;
23728;SDS011;12045;60.214;24.724;2022-12-07T12:45:35;7.50;;;4.53;;
23728;SDS011;12045;60.214;24.724;2022-12-07T12:48:09;8.40;;;3.97;;
23728;SDS011;12045;60.214;24.724;2022-12-07T13:05:23;9.63;;;5.40;;
23728;SDS011;12045;60.214;24.724;2022-12-07T13:07:55;10.87;;;5.33;;
23728;SDS011;12045;60.214;24.724;2022-12-07T13:10:31;12.40;;;5.40;;
23728;SDS011;12045;60.214;24.724;2022-12-07T13:15:48;9.97;;;4.97;;
23728;SDS011;12045;60.214;24.724;2022-12-07T13:18:35;7.23;;;4.63;;
23728;SDS011;12045;60.214;24.724;2022-12-07T13:24:01;9.17;;;5.20;;
23728;SDS011;12045;60.214;24.724;2022-12-07T13:26:47;10.93;;;5.20;;
23728;SDS011;12045;60.214;24.724;2022-12-07T13:29:22;8.87;;;5.00;;
23728;SDS011;12045;60.214;24.724;2022-12-07T13:38:19;9.87;;;4.77;;
23728;SDS011;12045;60.214;24.724;2022-12-07T13:41:17;10.70;;;5.03;;
23728;SDS011;12045;60.214;24.724;2022-12-07T13:43:49;8.53;;;4.97;;
23728;SDS011;12045;60.214;24.724;2022-12-07T13:46:19;8.93;;;4.67;;
23728;SDS011;12045;60.214;24.724;2022-12-07T13:48:57;10.73;;;4.63;;
23728;SDS011;12045;60.214;24.724;2022-12-07T13:51:25;9.80;;;4.67;;
23728;SDS011;12045;60.214;24.724;2022-12-07T13:54:01;7.57;;;4.50;;
23728;SDS011;12045;60.214;24.724;2022-12-07T13:56:35;10.83;;;4.80;;
23728;SDS011;12045;60.214;24.724;2022-12-07T13:59:04;12.07;;;4.90;;
23728;SDS011;12045;60.214;24.724;2022-12-07T14:01:41;11.23;;;5.40;;
23728;SDS011;12045;60.214;24.724;2022-12-07T14:04:45;9.90;;;4.47;;
23728;SDS011;12045;60.214;24.724;2022-12-07T14:09:57;10.60;;;4.30;;
23728;SDS011;12045;60.214;24.724;2022-12-07T14:12:29;10.77;;;4.57;;
23728;SDS011;12045;60.214;24.724;2022-12-07T14:14:59;9.50;;;5.03;;
23728;SDS011;12045;60.214;24.724;2022-12-07T14:17:31;9.93;;;4.47;;
23728;SDS011;12045;60.214;24.724;2022-12-07T14:23:23;9.80;;;4.87;;
23728;SDS011;12045;60.214;24.724;2022-12-07T14:25:53;15.73;;;5.07;;
23728;SDS011;12045;60.214;24.724;2022-12-07T14:28:28;9.97;;;4.83;;
23728;SDS011;12045;60.214;24.724;2022-12-07T14:30:59;8.13;;;4.47;;
23728;SDS011;12045;60.214;24.724;2022-12-07T14:33:29;9.67;;;4.60;;
23728;SDS011;12045;60.214;24.724;2022-12-07T14:35:57;8.73;;;4.63;;
23728;SDS011;12045;60.214;24.724;2022-12-07T14:38:30;10.03;;;4.80;;
23728;SDS011;12045;60.214;24.724;2022-12-07T14:41:02;9.03;;;4.57;;
23728;SDS011;12045;60.214;24.724;2022-12-07T14:43:50;7.87;;;4.73;;
23728;SDS011;12045;60.214;24.724;2022-12-07T14:46:37;8.60;;;4.13;;
23728;SDS011;12045;60.214;24.724;2022-12-07T14:49:05;7.03;;;4.10;;
23728;SDS011;12045;60.214;24.724;2022-12-07T14:51:53;7.80;;;3.93;;
23728;SDS011;12045;60.214;24.724;2022-12-07T14:54:47;10.27;;;4.67;;
23728;SDS011;12045;60.214;24.724;2022-12-07T14:57:15;8.33;;;3.80;;
23728;SDS011;12045;60.214;24.724;2022-12-07T14:59:44;9.00;;;4.43;;
23728;SDS011;12045;60.214;24.724;2022-12-07T15:02:15;9.07;;;4.50;;
23728;SDS011;12045;60.214;24.724;2022-12-07T15:04:45;9.40;;;4.57;;
23728;SDS011;12045;60.214;24.724;2022-12-07T15:07:20;7.80;;;4.37;;
23728;SDS011;12045;60.214;24.724;2022-12-07T15:09:48;7.30;;;4.30;;
23728;SDS011;12045;60.214;24.724;2022-12-07T15:12:16;11.80;;;4.53;;
23728;SDS011;12045;60.214;24.724;2022-12-07T15:14:45;10.13;;;4.50;;
23728;SDS011;12045;60.214;24.724;2022-12-07T15:17:13;8.90;;;4.93;;
23728;SDS011;12045;60.214;24.724;2022-12-07T15:19:55;12.77;;;4.83;;
23728;SDS011;12045;60.214;24.724;2022-12-07T15:22:25;9.77;;;4.90;;
23728;SDS011;12045;60.214;24.724;2022-12-07T15:24:55;8.90;;;4.73;;
23728;SDS011;12045;60.214;24.724;2022-12-07T15:27:24;14.33;;;5.40;;
23728;SDS011;12045;60.214;24.724;2022-12-07T15:29:54;8.63;;;4.73;;
23728;SDS011;12045;60.214;24.724;2022-12-07T15:32:21;10.20;;;4.70;;
23728;SDS011;12045;60.214;24.724;2022-12-07T15:34:50;8.57;;;4.37;;
23728;SDS011;12045;60.214;24.724;2022-12-07T15:37:17;8.27;;;4.57;;
23728;SDS011;12045;60.214;24.724;2022-12-07T15:39:45;7.10;;;4.33;;
23728;SDS011;12045;60.214;24.724;2022-12-07T15:42:13;12.57;;;5.57;;
23728;SDS011;12045;60.214;24.724;2022-12-07T15:44:41;11.27;;;5.77;;
23728;SDS011;12045;60.214;24.724;2022-12-07T15:47:28;8.07;;;4.60;;
23728;SDS011;12045;60.214;24.724;2022-12-07T15:49:57;10.93;;;5.20;;
23728;SDS011;12045;60.214;24.724;2022-12-07T15:52:28;12.67;;;5.30;;
23728;SDS011;12045;60.214;24.724;2022-12-07T15:54:57;8.33;;;4.57;;
23728;SDS011;12045;60.214;24.724;2022-12-07T15:57:29;8.50;;;4.63;;
23728;SDS011;12045;60.214;24.724;2022-12-07T15:59:58;8.43;;;5.23;;
23728;SDS011;12045;60.214;24.724;2022-12-07T16:02:27;8.30;;;4.90;;
23728;SDS011;12045;60.214;24.724;2022-12-07T16:05:03;10.17;;;4.77;;
23728;SDS011;12045;60.214;24.724;2022-12-07T16:07:31;6.90;;;4.63;;
23728;SDS011;12045;60.214;24.724;2022-12-07T16:10:02;10.77;;;5.60;;
23728;SDS011;12045;60.214;24.724;2022-12-07T16:12:30;8.07;;;5.30;;
23728;SDS011;12045;60.214;24.724;2022-12-07T16:14:57;8.20;;;5.23;;
23728;SDS011;12045;60.214;24.724;2022-12-07T16:17:28;11.47;;;5.20;;
23728;SDS011;12045;60.214;24.724;2022-12-07T16:19:56;10.37;;;5.40;;
23728;SDS011;12045;60.214;24.724;2022-12-07T16:22:26;9.37;;;4.30;;
23728;SDS011;12045;60.214;24.724;2022-12-07T16:24:53;11.10;;;4.73;;
23728;SDS011;12045;60.214;24.724;2022-12-07T16:27:21;6.97;;;4.53;;
23728;SDS011;12045;60.214;24.724;2022-12-07T16:29:48;10.20;;;5.63;;
23728;SDS011;12045;60.214;24.724;2022-12-07T16:32:16;8.27;;;5.20;;
23728;SDS011;12045;60.214;24.724;2022-12-07T16:34:45;11.40;;;5.70;;
23728;SDS011;12045;60.214;24.724;2022-12-07T16:37:14;10.83;;;5.17;;
23728;SDS011;12045;60.214;24.724;2022-12-07T16:39:42;10.03;;;4.80;;
23728;SDS011;12045;60.214;24.724;2022-12-07T16:42:10;9.70;;;5.67;;
23728;SDS011;12045;60.214;24.724;2022-12-07T16:44:37;11.27;;;6.30;;
23728;SDS011;12045;60.214;24.724;2022-12-07T16:47:05;10.27;;;5.33;;
23728;SDS011;12045;60.214;24.724;2022-12-07T16:49:39;11.40;;;5.93;;
23728;SDS011;12045;60.214;24.724;2022-12-07T16:52:06;10.43;;;5.80;;
23728;SDS011;12045;60.214;24.724;2022-12-07T16:54:48;10.37;;;5.77;;
23728;SDS011;12045;60.214;24.724;2022-12-07T16:57:18;13.30;;;6.30;;
23728;SDS011;12045;60.214;24.724;2022-12-07T16:59:50;9.63;;;5.23;;
23728;SDS011;12045;60.214;24.724;2022-12-07T17:02:18;9.70;;;6.23;;
23728;SDS011;12045;60.214;24.724;2022-12-07T17:04:46;9.87;;;6.13;;
23728;SDS011;12045;60.214;24.724;2022-12-07T17:07:14;11.43;;;5.73;;
23728;SDS011;12045;60.214;24.724;2022-12-07T17:09:42;11.30;;;5.50;;
23728;SDS011;12045;60.214;24.724;2022-12-07T17:12:09;12.77;;;6.43;;
23728;SDS011;12045;60.214;24.724;2022-12-07T17:14:37;10.93;;;6.13;;
23728;SDS011;12045;60.214;24.724;2022-12-07T17:17:23;9.97;;;6.40;;
23728;SDS011;12045;60.214;24.724;2022-12-07T17:19:52;11.80;;;6.13;;
23728;SDS011;12045;60.214;24.724;2022-12-07T17:22:19;10.53;;;6.33;;
23728;SDS011;12045;60.214;24.724;2022-12-07T17:24:48;12.83;;;6.23;;
23728;SDS011;12045;60.214;24.724;2022-12-07T17:27:16;10.50;;;5.70;;